Weather observations for the past three days for
Winslow, Winslow Municipal Airport
Imperial (Metric)
Date Time (mst) Wind (mph) Vis. (mi.) Weather Sky Cond. Temperature (ºF) Relative Humidity Wind Chill (°F) Heat Index (°F) Pressure Precipitation (in)
Air Dwpt 6 hour altimeter (in) sea level (mb) 1 hr 3 hr 6 hr
Max. Min.
10 06:56 NW 8 10.00 Fair CLR 62.1 16 17% 30.16 1014.4
10 05:56 W 6 10.00 Fair CLR 51.1 19 28% 30.13 1014.3
10 04:56 NW 8 10.00 Fair CLR 57 19.9 73.9 53.1 24% 30.1 1012.7
10 03:56 NW 8 10.00 Fair CLR 57.9 18 21% 30.08 1011.8
10 02:56 W 10 10.00 Fair CLR 61 15.1 17% 30.07 1010.9
10 01:56 W 8 10.00 Fair CLR 62.1 17.1 17% 30.05 1010.4
10 00:56 W 14 10.00 Fair CLR 64 23 21% 30.04 1009.6
09 23:56 SW 10 10.00 Fair CLR 63 23 22% 30.04 1009.5
09 22:56 W 5 10.00 Fair CLR 73 25 84.9 73 17% 30.03 1008.9
09 21:56 Vrbl 5 10.00 Fair CLR 75 24.1 15% 75 30.01 1008.2
09 20:56 N 9 10.00 Fair CLR 73.9 23 15% 29.99 1008.0
09 19:56 W 7 10.00 Fair CLR 77 23 13% 76 29.96 1006.7
09 18:56 W 17 G 25 10.00 Fair CLR 82 21.9 11% 80 29.93 1006.2
09 17:56 NW 5 10.00 A Few Clouds FEW120 84 21 10% 81 29.92 1007.2
09 16:56 N 5 10.00 A Few Clouds FEW100 84 21 90 82.9 10% 81 29.93 1007.3
09 15:56 NW 10 10.00 Fair CLR 86 19 8% 83 29.93 1006.7
09 14:56 NW 5 10.00 Fair CLR 87.1 18 8% 84 29.95 1007.3
09 13:56 S 6 10.00 Fair CLR 86 18 8% 83 29.97 1007.6
09 12:56 NW 12 G 21 10.00 Fair CLR 88 19 8% 84 29.99 1007.9
09 11:56 NE 9 10.00 Fair CLR 86 17.1 8% 83 30.01 1008.7
09 10:56 NE 7 10.00 Fair CLR 82.9 19.9 82.9 46 10% 80 30.05 1009.9
09 09:56 NW 6 10.00 Fair CLR 80.1 21 11% 78 30.06 1011.0
09 08:56 Vrbl 3 10.00 Fair CLR 75 21 13% 75 30.06 1010.7
09 07:56 Vrbl 3 10.00 Fair CLR 72 19 13% 30.07 1010.8
09 06:56 S 3 10.00 Fair CLR 63 21 20% 30.06 1011.3
09 05:56 Calm 10.00 Fair CLR 48 19 32% 30.05 1011.7
09 04:56 Calm 10.00 Fair CLR 50 19 66.9 50 29% 30.04 1010.7
09 03:56 W 9 10.00 Fair CLR 54 19 25% 30.03 1010.1
09 02:56 Calm 10.00 Fair CLR 53.1 19.9 27% 30.02 1009.9
09 01:56 NW 3 10.00 Fair CLR 57 23 27% 30.02 1009.9
09 00:56 NW 8 10.00 Fair CLR 62.1 24.1 23% 30.01 1009.3
08 23:56 SW 13 10.00 Fair CLR 63 25 24% 30.01 1009.1
08 22:56 SW 14 10.00 Fair CLR 66.9 26.1 88 64 21% 30 1008.8
08 21:56 W 10 10.00 Fair CLR 64 24.1 22% 29.99 1009.4
08 20:56 W 13 10.00 Fair CLR 72 25 17% 29.98 1008.8
08 19:56 W 12 10.00 Fair CLR 75.9 24.1 14% 76 29.96 1008.4
08 18:56 W 6 10.00 Fair CLR 79 21.9 12% 77 29.94 1007.9
08 17:56 NW 6 10.00 Fair CLR 84 19 9% 81 29.93 1008.0
08 16:56 Vrbl 7 10.00 Fair CLR 87.1 19.9 89.1 77 8% 84 29.94 1007.9
08 15:56 E 8 10.00 Fair CLR 87.1 19.9 8% 84 29.95 1008.2
08 14:56 Calm 10.00 Fair CLR 86 21 9% 83 29.97 1008.6
08 13:56 Calm 10.00 Fair CLR 82.9 21 10% 80 29.99 1009.7
08 12:56 Calm 10.00 Fair CLR 82 23 11% 80 30.02 1010.2
08 11:56 Calm 10.00 Fair CLR 81 19 10% 79 30.04 1011.1
08 10:56 Vrbl 3 10.00 Fair CLR 78.1 17.1 79 42.1 10% 77 30.06 1012.3
08 09:56 E 3 10.00 Fair CLR 72 18 13% 30.08 1013.4
08 08:56 Calm 10.00 Fair CLR 64.9 18 16% 30.08 1014.1
08 07:56 SE 6 10.00 Fair CLR 57.9 16 19% 30.09 1014.2
08 06:56 SE 7 10.00 Fair CLR 50 12.9 22% 48 30.08 1013.7
08 05:56 SE 7 10.00 Fair CLR 44.1 12.9 28% 41 30.07 1013.5
08 04:56 SE 7 10.00 Fair CLR 43 7 55 41 22% 39 30.06 1013.1
08 03:56 S 3 10.00 Fair CLR 43 8.1 24% 30.05 1013.0
08 02:56 Calm 10.00 Fair CLR 46.9 8.1 20% 30.05 1012.9
08 01:56 SE 6 10.00 Fair CLR 48.9 8.1 19% 47 30.04 1012.3
08 00:56 Vrbl 3 10.00 Fair CLR 54 8.1 16% 30.05 1012.5
07 23:56 SW 7 10.00 Fair CLR 53.1 7 15% 30.05 1012.7
07 22:56 SW 8 10.00 Fair CLR 52 6.1 77 51.1 15% 30.05 1013.0
07 21:56 SW 9 10.00 Fair CLR 51.1 6.1 16% 30.06 1013.7
07 20:56 W 6 10.00 Fair CLR 53.1 5 14% 30.05 1013.6
07 19:56 Calm 10.00 Fair CLR 60.1 6.1 11% 30.03 1012.8
07 18:56 NW 6 10.00 Fair CLR 73 3.9 6% 30.02 1011.6
07 17:56 W 7 10.00 Fair CLR 75 3 6% 74 30.02 1012.0
07 16:56 NW 8 G 18 10.00 Fair CLR 77 5 77 64.9 6% 76 30.02 1011.7
07 15:56 N 8 10.00 Fair CLR 75.9 8.1 7% 75 30.03 1012.2
07 14:56 Calm 10.00 Fair CLR 73 10 9% 30.05 1012.9
07 13:56 Vrbl 3 10.00 Fair CLR 73 12 9% 30.08 1013.5
07 12:56 NE 6 10.00 Fair CLR 70 12.9 11% 30.11 1014.6
07 11:56 W 3 10.00 Fair CLR 68 14 12% 30.13 1015.4
07 10:56 Calm 10.00 Fair CLR 66 16 66 37.9 14% 30.16 1016.4
07 09:56 Vrbl 3 10.00 Fair CLR 63 17.1 17% 30.18 1016.8
07 08:56 Calm 10.00 Fair CLR 59 21 23% 30.19 1017.4
Date Time (mst) Wind (mph) Vis. (mi.) Weather Sky Cond. Air Dwpt Max. Min. Relative Humidity Wind Chill (°F) Heat Index (°F) altimeter (in) sea level (mb) 1 hr 3 hr 6 hr
6 hour
Temperature (ºF) Pressure Precipitation (in)